Sar-01 — UUAV2 — position and weather

sailwx.info

Track history (hours):
 
Tides and Currents Weather Stations Pressure Air Temp Water Temp Dewpoint Dewpoint Depression Visibility Wind Speed Wind Dir Waves Ship Positions

Sar-01

Last reported at 2018-Jun-20 03:36 UTC. Time now 2018-Jun-20 03:59 UTC.
Position N 46°21' E 030°42'.

Length 16 m; draft 0.9 m.

Type: SAR. MMSI: 272682000.

Date/timePositionNaut miles runAvg speedWind from/ knotsBaromVisibWave heightAir tempDewpointWater temp
2018-Jun-20 03:36N 46°21' E 030°42'0 0.0
2018-Jun-19 07:39N 46°21' E 030°42'0 0.0
2018-Jun-19 07:30N 46°21' E 030°42'0 0.0
2018-Jun-19 06:29N 46°21' E 030°42'0 0.0
2018-Jun-19 04:36N 46°21' E 030°42'0 0.0
2018-Jun-19 04:26N 46°21' E 030°42'0 0.0
2018-Jun-19 02:37N 46°21' E 030°42'0 0.0
2018-Jun-18 05:38N 46°21' E 030°42'0 0.0
2018-Jun-18 05:27N 46°21' E 030°42'0 0.0
2018-Jun-18 04:35N 46°21' E 030°42'0 0.0
2018-Jun-18 04:26N 46°21' E 030°42'0 0.0
2018-Jun-17 11:37N 46°21' E 030°42'0 0.0
2018-Jun-17 10:30N 46°21' E 030°42'0 0.0
2018-Jun-17 09:28N 46°21' E 030°42'0 0.0
2018-Jun-17 08:25N 46°21' E 030°42'0 0.0
2018-Jun-17 07:38N 46°21' E 030°42'0 0.0
2018-Jun-17 07:27N 46°21' E 030°42'0 0.0
2018-Jun-17 06:37N 46°21' E 030°42'0 0.0
2018-Jun-17 06:27N 46°21' E 030°42'0 0.0
2018-Jun-17 05:31N 46°21' E 030°42'0 0.0
2018-Jun-17 05:27N 46°21' E 030°42'0 0.0
2018-Jun-17 04:39N 46°21' E 030°42'0 0.0
2018-Jun-17 04:30N 46°21' E 030°42'0 0.0
2018-Jun-17 02:32N 46°21' E 030°42'0 0.0
2018-Jun-17 02:25N 46°21' E 030°42'0 0.0
2018-Jun-16 19:41N 46°21' E 030°42'0 0.0
2018-Jun-16 15:49N 46°21' E 030°42'0 0.0
2018-Jun-16 15:01N 46°21' E 030°42'0 0.0
2018-Jun-16 15:00N 46°21' E 030°42'0 0.0
2018-Jun-16 13:57N 46°21' E 030°42'0 0.0
2018-Jun-16 12:51N 46°21' E 030°42'0 0.0
2018-Jun-16 11:57N 46°21' E 030°42'0 0.0
2018-Jun-16 09:59N 46°21' E 030°42'0 0.0
2018-Jun-16 09:01N 46°21' E 030°42'0 0.0
2018-Jun-16 08:55N 46°21' E 030°42'0 0.0
2018-Jun-16 06:40N 46°21' E 030°42'0 0.0
2018-Jun-16 06:02N 46°21' E 030°42'0 0.0
2018-Jun-16 05:57N 46°21' E 030°42'0 0.0
2018-Jun-16 04:57N 46°21' E 030°42'0 0.0
2018-Jun-16 03:59N 46°21' E 030°42'2 0.1
2018-Jun-15 13:59N 46°19' E 030°40'2 1.7
2018-Jun-15 13:02N 46°20' E 030°39'0 6.5
2018-Jun-15 12:59N 46°20' E 030°39'18 7.9
2018-Jun-15 10:45N 46°03' E 030°41'1 0.5
2018-Jun-15 09:01N 46°03' E 030°42'0 8.7
2018-Jun-15 09:00N 46°03' E 030°42'3 2.7
2018-Jun-15 07:53N 46°00' E 030°43'2110.9
2018-Jun-15 06:01N 46°21' E 030°42'0 0.0
2018-Jun-15 05:54N 46°21' E 030°42'0 0.0
2018-Jun-15 05:02N 46°21' E 030°42'0 0.0
2018-Jun-15 04:55N 46°21' E 030°42'0 0.0
2018-Jun-15 03:59N 46°21' E 030°42'0 0.0
2018-Jun-15 02:38N 46°21' E 030°42'0 0.0
2018-Jun-15 01:58N 46°21' E 030°42'0 0.0
2018-Jun-15 01:02N 46°21' E 030°42'0 0.0
2018-Jun-15 00:59N 46°21' E 030°42'0 0.0
2018-Jun-14 21:57N 46°21' E 030°42'0 0.0
2018-Jun-14 20:49N 46°21' E 030°42'0 0.0
2018-Jun-14 06:01N 46°21' E 030°42'0 0.0
2018-Jun-14 05:57N 46°21' E 030°42'0 0.0
2018-Jun-14 04:39N 46°21' E 030°42'0 0.0
2018-Jun-14 04:28N 46°21' E 030°42'0 0.0
2018-Jun-14 03:59N 46°21' E 030°42'0 0.0
2018-Jun-14 03:28N 46°21' E 030°42'0 0.0
2018-Jun-14 02:53N 46°21' E 030°42'0 0.0
2018-Jun-14 02:17N 46°21' E 030°42'0 0.0
2018-Jun-14 01:49N 46°21' E 030°42'0 0.0
2018-Jun-14 01:30N 46°21' E 030°42'0 0.0
2018-Jun-14 01:00N 46°21' E 030°42'0 0.0
2018-Jun-13 23:44N 46°21' E 030°42'0 0.0
2018-Jun-13 23:27N 46°21' E 030°42'0 0.0
2018-Jun-13 23:00N 46°21' E 030°42'0 0.0
2018-Jun-13 21:57N 46°21' E 030°42'0 0.0
2018-Jun-13 21:13N 46°21' E 030°42'0 0.0
2018-Jun-13 20:58N 46°21' E 030°42'0 0.0
2018-Jun-13 19:49N 46°21' E 030°42'0 0.0
2018-Jun-13 19:21N 46°21' E 030°42'0 0.0
2018-Jun-13 18:45N 46°21' E 030°42'0 0.0
2018-Jun-13 18:27N 46°21' E 030°42'0 0.0
2018-Jun-13 17:59N 46°21' E 030°42'0 0.0
2018-Jun-13 09:55N 46°21' E 030°42'0 0.0
2018-Jun-13 08:55N 46°21' E 030°42'3 3.4
2018-Jun-13 08:04N 46°20' E 030°38'0 0.0
2018-Jun-13 08:00N 46°20' E 030°38'6 5.8
2018-Jun-13 06:56N 46°14' E 030°39'7 2.4
2018-Jun-13 03:59N 46°21' E 030°42'0 0.0
2018-Jun-13 02:03N 46°21' E 030°42'0 0.0
2018-Jun-13 02:00N 46°21' E 030°42'0 0.0
2018-Jun-12 21:41N 46°21' E 030°42'0 0.0
2018-Jun-12 01:47N 46°21' E 030°42'0 0.0
2018-Jun-12 01:30N 46°21' E 030°42'0 0.0
2018-Jun-11 22:58N 46°21' E 030°42'0 0.0
2018-Jun-11 22:26N 46°21' E 030°42'0 0.0
2018-Jun-11 22:00N 46°21' E 030°42'0 0.0
2018-Jun-11 21:30N 46°21' E 030°42'0 0.0
2018-Jun-11 20:59N 46°21' E 030°42'0 0.0
2018-Jun-11 20:30N 46°21' E 030°42'0 0.0
2018-Jun-11 19:57N 46°21' E 030°42'0 0.0
2018-Jun-11 19:30N 46°21' E 030°42'0 0.0
2018-Jun-11 19:00N 46°21' E 030°42'0 0.0
2018-Jun-11 18:29N 46°21' E 030°42'0 0.0
2018-Jun-11 17:59N 46°21' E 030°42'0 0.0
2018-Jun-11 17:30N 46°21' E 030°42'0 0.0
2018-Jun-11 17:00N 46°21' E 030°42'0 0.0
2018-Jun-11 15:52N 46°21' E 030°42'0 0.0
2018-Jun-10 12:01N 46°21' E 030°42'0 0.0
2018-Jun-10 11:47N 46°21' E 030°42'0 0.0
2018-Jun-10 06:53N 46°21' E 030°42'0 0.0
2018-Jun-10 05:55N 46°21' E 030°42'0 0.0
2018-Jun-10 03:58N 46°21' E 030°42'  
Track history (hours):
 
Tides and Currents Weather Stations Pressure Air Temp Water Temp Dewpoint Dewpoint Depression Visibility Wind Speed Wind Dir Waves Ship Positions

Sar-01

Last reported at 2018-Jun-20 03:36 UTC. Time now 2018-Jun-20 03:59 UTC.
Position N 46°21' E 030°42'.

Length 16 m; draft 0.9 m.

Type: SAR. MMSI: 272682000.

Date/timePositionNaut miles runAvg speedWind from/ knotsBaromVisibWave heightAir tempDewpointWater temp
2018-Jun-20 03:36N 46°21' E 030°42'0 0.0
2018-Jun-19 07:39N 46°21' E 030°42'0 0.0
2018-Jun-19 07:30N 46°21' E 030°42'0 0.0
2018-Jun-19 06:29N 46°21' E 030°42'0 0.0
2018-Jun-19 04:36N 46°21' E 030°42'0 0.0
2018-Jun-19 04:26N 46°21' E 030°42'0 0.0
2018-Jun-19 02:37N 46°21' E 030°42'0 0.0
2018-Jun-18 05:38N 46°21' E 030°42'0 0.0
2018-Jun-18 05:27N 46°21' E 030°42'0 0.0
2018-Jun-18 04:35N 46°21' E 030°42'0 0.0
2018-Jun-18 04:26N 46°21' E 030°42'0 0.0
2018-Jun-17 11:37N 46°21' E 030°42'0 0.0
2018-Jun-17 10:30N 46°21' E 030°42'0 0.0
2018-Jun-17 09:28N 46°21' E 030°42'0 0.0
2018-Jun-17 08:25N 46°21' E 030°42'0 0.0
2018-Jun-17 07:38N 46°21' E 030°42'0 0.0
2018-Jun-17 07:27N 46°21' E 030°42'0 0.0
2018-Jun-17 06:37N 46°21' E 030°42'0 0.0
2018-Jun-17 06:27N 46°21' E 030°42'0 0.0
2018-Jun-17 05:31N 46°21' E 030°42'0 0.0
2018-Jun-17 05:27N 46°21' E 030°42'0 0.0
2018-Jun-17 04:39N 46°21' E 030°42'0 0.0
2018-Jun-17 04:30N 46°21' E 030°42'0 0.0
2018-Jun-17 02:32N 46°21' E 030°42'0 0.0
2018-Jun-17 02:25N 46°21' E 030°42'0 0.0
2018-Jun-16 19:41N 46°21' E 030°42'0 0.0
2018-Jun-16 15:49N 46°21' E 030°42'0 0.0
2018-Jun-16 15:01N 46°21' E 030°42'0 0.0
2018-Jun-16 15:00N 46°21' E 030°42'0 0.0
2018-Jun-16 13:57N 46°21' E 030°42'0 0.0
2018-Jun-16 12:51N 46°21' E 030°42'0 0.0
2018-Jun-16 11:57N 46°21' E 030°42'0 0.0
2018-Jun-16 09:59N 46°21' E 030°42'0 0.0
2018-Jun-16 09:01N 46°21' E 030°42'0 0.0
2018-Jun-16 08:55N 46°21' E 030°42'0 0.0
2018-Jun-16 06:40N 46°21' E 030°42'0 0.0
2018-Jun-16 06:02N 46°21' E 030°42'0 0.0
2018-Jun-16 05:57N 46°21' E 030°42'0 0.0
2018-Jun-16 04:57N 46°21' E 030°42'0 0.0
2018-Jun-16 03:59N 46°21' E 030°42'2 0.1
2018-Jun-15 13:59N 46°19' E 030°40'2 1.7
2018-Jun-15 13:02N 46°20' E 030°39'0 6.5
2018-Jun-15 12:59N 46°20' E 030°39'18 7.9
2018-Jun-15 10:45N 46°03' E 030°41'1 0.5
2018-Jun-15 09:01N 46°03' E 030°42'0 8.7
2018-Jun-15 09:00N 46°03' E 030°42'3 2.7
2018-Jun-15 07:53N 46°00' E 030°43'2110.9
2018-Jun-15 06:01N 46°21' E 030°42'0 0.0
2018-Jun-15 05:54N 46°21' E 030°42'0 0.0
2018-Jun-15 05:02N 46°21' E 030°42'0 0.0
2018-Jun-15 04:55N 46°21' E 030°42'0 0.0
2018-Jun-15 03:59N 46°21' E 030°42'0 0.0
2018-Jun-15 02:38N 46°21' E 030°42'0 0.0
2018-Jun-15 01:58N 46°21' E 030°42'0 0.0
2018-Jun-15 01:02N 46°21' E 030°42'0 0.0
2018-Jun-15 00:59N 46°21' E 030°42'0 0.0
2018-Jun-14 21:57N 46°21' E 030°42'0 0.0
2018-Jun-14 20:49N 46°21' E 030°42'0 0.0
2018-Jun-14 06:01N 46°21' E 030°42'0 0.0
2018-Jun-14 05:57N 46°21' E 030°42'0 0.0
2018-Jun-14 04:39N 46°21' E 030°42'0 0.0
2018-Jun-14 04:28N 46°21' E 030°42'0 0.0
2018-Jun-14 03:59N 46°21' E 030°42'0 0.0
2018-Jun-14 03:28N 46°21' E 030°42'0 0.0
2018-Jun-14 02:53N 46°21' E 030°42'0 0.0
2018-Jun-14 02:17N 46°21' E 030°42'0 0.0
2018-Jun-14 01:49N 46°21' E 030°42'0 0.0
2018-Jun-14 01:30N 46°21' E 030°42'0 0.0
2018-Jun-14 01:00N 46°21' E 030°42'0 0.0
2018-Jun-13 23:44N 46°21' E 030°42'0 0.0
2018-Jun-13 23:27N 46°21' E 030°42'0 0.0
2018-Jun-13 23:00N 46°21' E 030°42'0 0.0
2018-Jun-13 21:57N 46°21' E 030°42'0 0.0
2018-Jun-13 21:13N 46°21' E 030°42'0 0.0
2018-Jun-13 20:58N 46°21' E 030°42'0 0.0
2018-Jun-13 19:49N 46°21' E 030°42'0 0.0
2018-Jun-13 19:21N 46°21' E 030°42'0 0.0
2018-Jun-13 18:45N 46°21' E 030°42'0 0.0
2018-Jun-13 18:27N 46°21' E 030°42'0 0.0
2018-Jun-13 17:59N 46°21' E 030°42'0 0.0
2018-Jun-13 09:55N 46°21' E 030°42'0 0.0
2018-Jun-13 08:55N 46°21' E 030°42'3 3.4
2018-Jun-13 08:04N 46°20' E 030°38'0 0.0
2018-Jun-13 08:00N 46°20' E 030°38'6 5.8
2018-Jun-13 06:56N 46°14' E 030°39'7 2.4
2018-Jun-13 03:59N 46°21' E 030°42'0 0.0
2018-Jun-13 02:03N 46°21' E 030°42'0 0.0
2018-Jun-13 02:00N 46°21' E 030°42'0 0.0
2018-Jun-12 21:41N 46°21' E 030°42'0 0.0
2018-Jun-12 01:47N 46°21' E 030°42'0 0.0
2018-Jun-12 01:30N 46°21' E 030°42'0 0.0
2018-Jun-11 22:58N 46°21' E 030°42'0 0.0
2018-Jun-11 22:26N 46°21' E 030°42'0 0.0
2018-Jun-11 22:00N 46°21' E 030°42'0 0.0
2018-Jun-11 21:30N 46°21' E 030°42'0 0.0
2018-Jun-11 20:59N 46°21' E 030°42'0 0.0
2018-Jun-11 20:30N 46°21' E 030°42'0 0.0
2018-Jun-11 19:57N 46°21' E 030°42'0 0.0
2018-Jun-11 19:30N 46°21' E 030°42'0 0.0
2018-Jun-11 19:00N 46°21' E 030°42'0 0.0
2018-Jun-11 18:29N 46°21' E 030°42'0 0.0
2018-Jun-11 17:59N 46°21' E 030°42'0 0.0
2018-Jun-11 17:30N 46°21' E 030°42'0 0.0
2018-Jun-11 17:00N 46°21' E 030°42'0 0.0
2018-Jun-11 15:52N 46°21' E 030°42'0 0.0
2018-Jun-10 12:01N 46°21' E 030°42'0 0.0
2018-Jun-10 11:47N 46°21' E 030°42'0 0.0
2018-Jun-10 06:53N 46°21' E 030°42'0 0.0
2018-Jun-10 05:55N 46°21' E 030°42'0 0.0
2018-Jun-10 03:58N 46°21' E 030°42'  

Dump ship's entire track history